sensor_id;sensor_type;location;lat;lon;timestamp;P1;durP1;ratioP1;P2;durP2;ratioP2
44430;SDS011;30135;47.866;-4.222;2023-03-03T00:00:52;24.23;;;11.25;;
44430;SDS011;30135;47.866;-4.222;2023-03-03T00:03:19;26.92;;;12.48;;
44430;SDS011;30135;47.866;-4.222;2023-03-03T00:05:49;26.08;;;11.85;;
44430;SDS011;30135;47.866;-4.222;2023-03-03T00:08:19;31.92;;;12.40;;
44430;SDS011;30135;47.866;-4.222;2023-03-03T00:10:46;30.92;;;12.63;;
44430;SDS011;30135;47.866;-4.222;2023-03-03T00:13:20;23.95;;;11.55;;
44430;SDS011;30135;47.866;-4.222;2023-03-03T00:15:49;29.30;;;13.02;;
44430;SDS011;30135;47.866;-4.222;2023-03-03T00:18:18;36.53;;;12.93;;
44430;SDS011;30135;47.866;-4.222;2023-03-03T00:20:59;26.25;;;11.80;;
44430;SDS011;30135;47.866;-4.222;2023-03-03T00:23:37;27.17;;;12.13;;
44430;SDS011;30135;47.866;-4.222;2023-03-03T00:28:51;27.38;;;11.43;;
44430;SDS011;30135;47.866;-4.222;2023-03-03T00:31:29;26.15;;;11.57;;
44430;SDS011;30135;47.866;-4.222;2023-03-03T00:34:19;29.15;;;11.85;;
44430;SDS011;30135;47.866;-4.222;2023-03-03T00:36:52;29.60;;;12.38;;
44430;SDS011;30135;47.866;-4.222;2023-03-03T00:42:00;24.42;;;11.95;;
44430;SDS011;30135;47.866;-4.222;2023-03-03T00:44:31;25.35;;;11.13;;
44430;SDS011;30135;47.866;-4.222;2023-03-03T00:52:30;22.63;;;10.98;;
44430;SDS011;30135;47.866;-4.222;2023-03-03T00:55:01;31.17;;;13.13;;
44430;SDS011;30135;47.866;-4.222;2023-03-03T00:57:29;30.20;;;12.10;;
44430;SDS011;30135;47.866;-4.222;2023-03-03T00:59:55;31.58;;;12.93;;
44430;SDS011;30135;47.866;-4.222;2023-03-03T01:02:21;25.48;;;10.75;;
44430;SDS011;30135;47.866;-4.222;2023-03-03T01:04:49;31.00;;;11.75;;
44430;SDS011;30135;47.866;-4.222;2023-03-03T01:07:17;32.38;;;12.10;;
44430;SDS011;30135;47.866;-4.222;2023-03-03T01:09:43;25.25;;;12.27;;
44430;SDS011;30135;47.866;-4.222;2023-03-03T01:12:10;35.50;;;11.68;;
44430;SDS011;30135;47.866;-4.222;2023-03-03T01:14:37;34.35;;;12.32;;
44430;SDS011;30135;47.866;-4.222;2023-03-03T01:17:04;27.25;;;11.48;;
44430;SDS011;30135;47.866;-4.222;2023-03-03T01:19:31;22.20;;;11.38;;
44430;SDS011;30135;47.866;-4.222;2023-03-03T01:21:57;30.98;;;11.68;;
44430;SDS011;30135;47.866;-4.222;2023-03-03T01:24:23;25.02;;;11.45;;
44430;SDS011;30135;47.866;-4.222;2023-03-03T01:26:49;32.35;;;12.88;;
44430;SDS011;30135;47.866;-4.222;2023-03-03T01:29:15;25.63;;;12.02;;
44430;SDS011;30135;47.866;-4.222;2023-03-03T01:31:41;26.15;;;13.32;;
44430;SDS011;30135;47.866;-4.222;2023-03-03T01:34:07;28.98;;;11.90;;
44430;SDS011;30135;47.866;-4.222;2023-03-03T01:36:33;26.85;;;12.80;;
44430;SDS011;30135;47.866;-4.222;2023-03-03T01:38:59;26.30;;;12.23;;
44430;SDS011;30135;47.866;-4.222;2023-03-03T01:41:26;25.73;;;12.48;;
44430;SDS011;30135;47.866;-4.222;2023-03-03T01:43:54;27.40;;;14.35;;
44430;SDS011;30135;47.866;-4.222;2023-03-03T01:46:32;26.67;;;11.68;;
44430;SDS011;30135;47.866;-4.222;2023-03-03T01:49:43;31.92;;;12.38;;
44430;SDS011;30135;47.866;-4.222;2023-03-03T01:52:33;27.48;;;12.40;;
44430;SDS011;30135;47.866;-4.222;2023-03-03T01:55:07;37.90;;;12.77;;
44430;SDS011;30135;47.866;-4.222;2023-03-03T01:57:47;23.48;;;11.23;;
44430;SDS011;30135;47.866;-4.222;2023-03-03T02:00:21;31.30;;;13.55;;
44430;SDS011;30135;47.866;-4.222;2023-03-03T02:02:47;31.67;;;12.43;;
44430;SDS011;30135;47.866;-4.222;2023-03-03T02:05:14;29.98;;;12.55;;
44430;SDS011;30135;47.866;-4.222;2023-03-03T02:07:40;29.80;;;13.68;;
44430;SDS011;30135;47.866;-4.222;2023-03-03T02:12:38;28.13;;;12.55;;
44430;SDS011;30135;47.866;-4.222;2023-03-03T02:15:16;28.95;;;13.02;;
44430;SDS011;30135;47.866;-4.222;2023-03-03T02:18:12;26.15;;;12.00;;
44430;SDS011;30135;47.866;-4.222;2023-03-03T02:26:36;29.65;;;13.75;;
44430;SDS011;30135;47.866;-4.222;2023-03-03T02:29:05;31.55;;;12.88;;
44430;SDS011;30135;47.866;-4.222;2023-03-03T02:31:32;33.88;;;14.13;;
44430;SDS011;30135;47.866;-4.222;2023-03-03T02:33:58;32.55;;;14.13;;
44430;SDS011;30135;47.866;-4.222;2023-03-03T02:36:29;32.53;;;14.02;;
44430;SDS011;30135;47.866;-4.222;2023-03-03T02:39:04;26.02;;;13.23;;
44430;SDS011;30135;47.866;-4.222;2023-03-03T02:44:26;30.70;;;12.50;;
44430;SDS011;30135;47.866;-4.222;2023-03-03T02:46:55;29.92;;;12.15;;
44430;SDS011;30135;47.866;-4.222;2023-03-03T02:49:24;25.98;;;12.95;;
44430;SDS011;30135;47.866;-4.222;2023-03-03T02:51:53;25.52;;;12.45;;
44430;SDS011;30135;47.866;-4.222;2023-03-03T02:54:26;31.08;;;12.18;;
44430;SDS011;30135;47.866;-4.222;2023-03-03T02:56:55;28.10;;;13.27;;
44430;SDS011;30135;47.866;-4.222;2023-03-03T02:59:22;34.20;;;13.15;;
44430;SDS011;30135;47.866;-4.222;2023-03-03T03:01:48;35.42;;;14.38;;
44430;SDS011;30135;47.866;-4.222;2023-03-03T03:04:20;33.17;;;14.40;;
44430;SDS011;30135;47.866;-4.222;2023-03-03T03:06:51;32.28;;;13.88;;
44430;SDS011;30135;47.866;-4.222;2023-03-03T03:09:18;31.42;;;12.98;;
44430;SDS011;30135;47.866;-4.222;2023-03-03T03:11:46;32.08;;;14.20;;
44430;SDS011;30135;47.866;-4.222;2023-03-03T03:14:13;31.45;;;14.07;;
44430;SDS011;30135;47.866;-4.222;2023-03-03T03:16:40;30.20;;;13.18;;
44430;SDS011;30135;47.866;-4.222;2023-03-03T03:19:06;37.42;;;15.07;;
44430;SDS011;30135;47.866;-4.222;2023-03-03T03:21:32;28.48;;;14.35;;
44430;SDS011;30135;47.866;-4.222;2023-03-03T03:23:58;38.55;;;14.02;;
44430;SDS011;30135;47.866;-4.222;2023-03-03T03:26:25;37.20;;;14.32;;
44430;SDS011;30135;47.866;-4.222;2023-03-03T03:28:51;31.95;;;12.88;;
44430;SDS011;30135;47.866;-4.222;2023-03-03T03:31:18;33.95;;;15.48;;
44430;SDS011;30135;47.866;-4.222;2023-03-03T03:33:45;33.72;;;14.90;;
44430;SDS011;30135;47.866;-4.222;2023-03-03T03:36:11;31.23;;;14.80;;
44430;SDS011;30135;47.866;-4.222;2023-03-03T03:38:37;36.30;;;14.55;;
44430;SDS011;30135;47.866;-4.222;2023-03-03T03:41:04;43.95;;;15.32;;
44430;SDS011;30135;47.866;-4.222;2023-03-03T03:43:32;43.65;;;14.48;;
44430;SDS011;30135;47.866;-4.222;2023-03-03T03:45:58;29.38;;;13.60;;
44430;SDS011;30135;47.866;-4.222;2023-03-03T03:48:24;31.48;;;14.52;;
44430;SDS011;30135;47.866;-4.222;2023-03-03T03:50:51;38.70;;;15.90;;
44430;SDS011;30135;47.866;-4.222;2023-03-03T03:53:17;34.30;;;13.85;;
44430;SDS011;30135;47.866;-4.222;2023-03-03T03:55:43;30.77;;;13.43;;
44430;SDS011;30135;47.866;-4.222;2023-03-03T03:58:14;34.33;;;14.45;;
44430;SDS011;30135;47.866;-4.222;2023-03-03T04:00:42;37.35;;;15.13;;
44430;SDS011;30135;47.866;-4.222;2023-03-03T04:03:10;37.08;;;14.80;;
44430;SDS011;30135;47.866;-4.222;2023-03-03T04:05:38;28.83;;;13.13;;
44430;SDS011;30135;47.866;-4.222;2023-03-03T04:08:04;31.48;;;14.82;;
44430;SDS011;30135;47.866;-4.222;2023-03-03T04:10:30;36.63;;;15.00;;
44430;SDS011;30135;47.866;-4.222;2023-03-03T04:12:56;31.92;;;15.63;;
44430;SDS011;30135;47.866;-4.222;2023-03-03T04:15:22;31.55;;;14.57;;
44430;SDS011;30135;47.866;-4.222;2023-03-03T04:17:48;31.40;;;14.07;;
44430;SDS011;30135;47.866;-4.222;2023-03-03T04:20:14;27.50;;;13.20;;
44430;SDS011;30135;47.866;-4.222;2023-03-03T04:22:43;39.83;;;15.02;;
44430;SDS011;30135;47.866;-4.222;2023-03-03T04:28:50;33.42;;;14.27;;
44430;SDS011;30135;47.866;-4.222;2023-03-03T04:31:16;40.15;;;14.70;;
44430;SDS011;30135;47.866;-4.222;2023-03-03T04:33:42;35.22;;;15.25;;
44430;SDS011;30135;47.866;-4.222;2023-03-03T04:36:08;38.38;;;15.65;;
44430;SDS011;30135;47.866;-4.222;2023-03-03T04:38:40;39.67;;;15.73;;
44430;SDS011;30135;47.866;-4.222;2023-03-03T04:41:06;42.92;;;17.23;;
44430;SDS011;30135;47.866;-4.222;2023-03-03T04:43:32;39.45;;;14.00;;
44430;SDS011;30135;47.866;-4.222;2023-03-03T04:45:58;29.23;;;13.35;;
44430;SDS011;30135;47.866;-4.222;2023-03-03T04:48:23;36.90;;;15.80;;
44430;SDS011;30135;47.866;-4.222;2023-03-03T04:50:49;30.95;;;14.35;;
44430;SDS011;30135;47.866;-4.222;2023-03-03T04:53:15;39.33;;;16.67;;
44430;SDS011;30135;47.866;-4.222;2023-03-03T04:55:41;34.75;;;15.00;;
44430;SDS011;30135;47.866;-4.222;2023-03-03T04:58:07;32.22;;;15.18;;
44430;SDS011;30135;47.866;-4.222;2023-03-03T05:00:34;36.60;;;15.63;;
44430;SDS011;30135;47.866;-4.222;2023-03-03T05:03:00;32.60;;;14.70;;
44430;SDS011;30135;47.866;-4.222;2023-03-03T05:05:26;38.03;;;15.90;;
44430;SDS011;30135;47.866;-4.222;2023-03-03T05:07:52;40.70;;;16.15;;
44430;SDS011;30135;47.866;-4.222;2023-03-03T05:10:18;35.83;;;15.88;;
44430;SDS011;30135;47.866;-4.222;2023-03-03T05:12:45;38.67;;;14.77;;
44430;SDS011;30135;47.866;-4.222;2023-03-03T05:15:11;34.05;;;15.45;;
44430;SDS011;30135;47.866;-4.222;2023-03-03T05:17:37;38.38;;;15.38;;
44430;SDS011;30135;47.866;-4.222;2023-03-03T05:20:04;39.05;;;16.90;;
44430;SDS011;30135;47.866;-4.222;2023-03-03T05:22:32;38.08;;;16.55;;
44430;SDS011;30135;47.866;-4.222;2023-03-03T05:24:58;36.72;;;16.08;;
44430;SDS011;30135;47.866;-4.222;2023-03-03T05:27:24;34.22;;;14.60;;
44430;SDS011;30135;47.866;-4.222;2023-03-03T05:29:50;40.30;;;16.02;;
44430;SDS011;30135;47.866;-4.222;2023-03-03T05:32:16;37.58;;;15.30;;
44430;SDS011;30135;47.866;-4.222;2023-03-03T05:34:42;40.15;;;16.05;;
44430;SDS011;30135;47.866;-4.222;2023-03-03T05:37:08;33.47;;;16.15;;
44430;SDS011;30135;47.866;-4.222;2023-03-03T05:39:34;34.55;;;14.85;;
44430;SDS011;30135;47.866;-4.222;2023-03-03T05:42:00;33.90;;;15.23;;
44430;SDS011;30135;47.866;-4.222;2023-03-03T05:44:27;42.17;;;17.58;;
44430;SDS011;30135;47.866;-4.222;2023-03-03T05:46:53;37.05;;;15.55;;
44430;SDS011;30135;47.866;-4.222;2023-03-03T05:49:20;38.08;;;17.20;;
44430;SDS011;30135;47.866;-4.222;2023-03-03T05:51:46;33.63;;;17.40;;
44430;SDS011;30135;47.866;-4.222;2023-03-03T05:54:12;37.20;;;17.60;;
44430;SDS011;30135;47.866;-4.222;2023-03-03T05:56:38;44.60;;;17.35;;
44430;SDS011;30135;47.866;-4.222;2023-03-03T05:59:04;41.72;;;18.80;;
44430;SDS011;30135;47.866;-4.222;2023-03-03T06:01:30;42.35;;;17.00;;
44430;SDS011;30135;47.866;-4.222;2023-03-03T06:03:56;41.70;;;17.05;;
44430;SDS011;30135;47.866;-4.222;2023-03-03T06:06:22;45.90;;;16.70;;
44430;SDS011;30135;47.866;-4.222;2023-03-03T06:08:48;45.33;;;15.50;;
44430;SDS011;30135;47.866;-4.222;2023-03-03T06:11:14;39.40;;;15.85;;
44430;SDS011;30135;47.866;-4.222;2023-03-03T06:13:42;31.73;;;14.68;;
44430;SDS011;30135;47.866;-4.222;2023-03-03T06:16:08;40.97;;;15.20;;
44430;SDS011;30135;47.866;-4.222;2023-03-03T06:18:34;34.92;;;15.68;;
44430;SDS011;30135;47.866;-4.222;2023-03-03T06:21:00;34.28;;;15.32;;
44430;SDS011;30135;47.866;-4.222;2023-03-03T06:23:27;36.20;;;15.60;;
44430;SDS011;30135;47.866;-4.222;2023-03-03T06:25:53;32.67;;;16.42;;
44430;SDS011;30135;47.866;-4.222;2023-03-03T06:28:19;37.80;;;16.70;;
44430;SDS011;30135;47.866;-4.222;2023-03-03T06:30:45;39.13;;;16.95;;
44430;SDS011;30135;47.866;-4.222;2023-03-03T06:33:10;40.75;;;16.42;;
44430;SDS011;30135;47.866;-4.222;2023-03-03T06:35:36;35.17;;;15.98;;
44430;SDS011;30135;47.866;-4.222;2023-03-03T06:38:02;50.45;;;15.80;;
44430;SDS011;30135;47.866;-4.222;2023-03-03T06:40:28;36.25;;;15.85;;
44430;SDS011;30135;47.866;-4.222;2023-03-03T06:42:54;33.80;;;15.18;;
44430;SDS011;30135;47.866;-4.222;2023-03-03T06:45:20;40.80;;;14.73;;
44430;SDS011;30135;47.866;-4.222;2023-03-03T06:47:46;39.03;;;14.02;;
44430;SDS011;30135;47.866;-4.222;2023-03-03T06:50:12;35.22;;;13.77;;
44430;SDS011;30135;47.866;-4.222;2023-03-03T06:52:44;38.92;;;14.48;;
44430;SDS011;30135;47.866;-4.222;2023-03-03T06:55:19;39.72;;;15.77;;
44430;SDS011;30135;47.866;-4.222;2023-03-03T06:57:47;35.33;;;14.13;;
44430;SDS011;30135;47.866;-4.222;2023-03-03T07:03:00;37.30;;;16.25;;
44430;SDS011;30135;47.866;-4.222;2023-03-03T07:05:35;38.08;;;16.05;;
44430;SDS011;30135;47.866;-4.222;2023-03-03T07:08:01;39.80;;;14.70;;
44430;SDS011;30135;47.866;-4.222;2023-03-03T07:10:35;41.30;;;16.83;;
44430;SDS011;30135;47.866;-4.222;2023-03-03T07:13:19;39.47;;;16.75;;
44430;SDS011;30135;47.866;-4.222;2023-03-03T07:15:49;35.20;;;15.50;;
44430;SDS011;30135;47.866;-4.222;2023-03-03T07:18:24;42.05;;;13.90;;
44430;SDS011;30135;47.866;-4.222;2023-03-03T07:21:16;48.53;;;14.80;;
44430;SDS011;30135;47.866;-4.222;2023-03-03T07:24:04;35.78;;;13.98;;
44430;SDS011;30135;47.866;-4.222;2023-03-03T07:27:08;35.47;;;15.50;;
44430;SDS011;30135;47.866;-4.222;2023-03-03T07:29:47;33.88;;;14.43;;
44430;SDS011;30135;47.866;-4.222;2023-03-03T07:32:38;43.30;;;18.27;;
44430;SDS011;30135;47.866;-4.222;2023-03-03T07:35:29;38.80;;;15.27;;
44430;SDS011;30135;47.866;-4.222;2023-03-03T07:41:18;35.72;;;13.88;;
44430;SDS011;30135;47.866;-4.222;2023-03-03T07:44:08;40.33;;;16.98;;
44430;SDS011;30135;47.866;-4.222;2023-03-03T07:46:47;36.33;;;14.45;;
44430;SDS011;30135;47.866;-4.222;2023-03-03T07:49:21;34.72;;;14.32;;
44430;SDS011;30135;47.866;-4.222;2023-03-03T07:51:54;37.20;;;14.23;;
44430;SDS011;30135;47.866;-4.222;2023-03-03T07:54:43;29.35;;;12.50;;
44430;SDS011;30135;47.866;-4.222;2023-03-03T07:59:37;30.17;;;12.93;;
44430;SDS011;30135;47.866;-4.222;2023-03-03T08:04:58;32.25;;;12.10;;
44430;SDS011;30135;47.866;-4.222;2023-03-03T08:07:24;29.33;;;12.43;;
44430;SDS011;30135;47.866;-4.222;2023-03-03T08:09:51;25.85;;;11.98;;
44430;SDS011;30135;47.866;-4.222;2023-03-03T08:18:07;24.45;;;9.77;;
44430;SDS011;30135;47.866;-4.222;2023-03-03T08:20:47;34.00;;;9.32;;
44430;SDS011;30135;47.866;-4.222;2023-03-03T08:23:24;29.83;;;7.30;;
44430;SDS011;30135;47.866;-4.222;2023-03-03T08:25:50;20.83;;;7.90;;
44430;SDS011;30135;47.866;-4.222;2023-03-03T08:28:17;19.58;;;7.82;;
44430;SDS011;30135;47.866;-4.222;2023-03-03T08:30:44;29.63;;;10.50;;
44430;SDS011;30135;47.866;-4.222;2023-03-03T08:33:11;25.20;;;7.35;;
44430;SDS011;30135;47.866;-4.222;2023-03-03T08:35:39;28.70;;;7.15;;
44430;SDS011;30135;47.866;-4.222;2023-03-03T08:38:06;24.15;;;7.28;;
44430;SDS011;30135;47.866;-4.222;2023-03-03T08:40:33;19.20;;;7.70;;
44430;SDS011;30135;47.866;-4.222;2023-03-03T08:43:13;25.92;;;7.32;;
44430;SDS011;30135;47.866;-4.222;2023-03-03T08:45:46;15.10;;;6.83;;
44430;SDS011;30135;47.866;-4.222;2023-03-03T08:48:14;27.92;;;7.28;;
44430;SDS011;30135;47.866;-4.222;2023-03-03T08:50:41;42.58;;;7.60;;
44430;SDS011;30135;47.866;-4.222;2023-03-03T08:53:08;24.30;;;6.93;;
44430;SDS011;30135;47.866;-4.222;2023-03-03T08:55:36;24.92;;;5.75;;
44430;SDS011;30135;47.866;-4.222;2023-03-03T08:58:02;21.58;;;6.40;;
44430;SDS011;30135;47.866;-4.222;2023-03-03T09:00:28;16.02;;;4.40;;
44430;SDS011;30135;47.866;-4.222;2023-03-03T09:02:54;12.48;;;4.22;;
44430;SDS011;30135;47.866;-4.222;2023-03-03T09:05:20;12.63;;;3.58;;
44430;SDS011;30135;47.866;-4.222;2023-03-03T09:07:47;17.35;;;4.20;;
44430;SDS011;30135;47.866;-4.222;2023-03-03T09:10:16;18.42;;;3.53;;
44430;SDS011;30135;47.866;-4.222;2023-03-03T09:12:51;12.70;;;4.80;;
44430;SDS011;30135;47.866;-4.222;2023-03-03T09:15:24;14.18;;;4.03;;
44430;SDS011;30135;47.866;-4.222;2023-03-03T09:17:59;15.13;;;4.53;;
44430;SDS011;30135;47.866;-4.222;2023-03-03T09:20:37;20.85;;;3.97;;
44430;SDS011;30135;47.866;-4.222;2023-03-03T09:29:38;11.90;;;3.22;;
44430;SDS011;30135;47.866;-4.222;2023-03-03T09:31:59;18.00;;;4.10;;
44430;SDS011;30135;47.866;-4.222;2023-03-03T09:35:00;9.93;;;3.08;;
44430;SDS011;30135;47.866;-4.222;2023-03-03T09:38:00;20.88;;;4.68;;
44430;SDS011;30135;47.866;-4.222;2023-03-03T09:46:51;13.65;;;3.35;;
44430;SDS011;30135;47.866;-4.222;2023-03-03T09:49:38;16.15;;;4.10;;
44430;SDS011;30135;47.866;-4.222;2023-03-03T10:11:01;11.70;;;3.72;;
44430;SDS011;30135;47.866;-4.222;2023-03-03T10:19:35;12.27;;;3.25;;
44430;SDS011;30135;47.866;-4.222;2023-03-03T10:22:23;15.00;;;3.05;;
44430;SDS011;30135;47.866;-4.222;2023-03-03T10:25:06;12.05;;;3.60;;
44430;SDS011;30135;47.866;-4.222;2023-03-03T10:31:43;18.83;;;4.13;;
44430;SDS011;30135;47.866;-4.222;2023-03-03T10:37:27;7.57;;;2.97;;
44430;SDS011;30135;47.866;-4.222;2023-03-03T10:46:58;9.23;;;2.92;;
44430;SDS011;30135;47.866;-4.222;2023-03-03T11:00:55;13.98;;;2.47;;
44430;SDS011;30135;47.866;-4.222;2023-03-03T11:03:38;13.35;;;4.00;;
44430;SDS011;30135;47.866;-4.222;2023-03-03T11:06:36;7.10;;;1.88;;
44430;SDS011;30135;47.866;-4.222;2023-03-03T11:32:13;16.98;;;3.03;;
44430;SDS011;30135;47.866;-4.222;2023-03-03T11:34:53;17.73;;;2.90;;
44430;SDS011;30135;47.866;-4.222;2023-03-03T11:38:01;16.20;;;2.75;;
44430;SDS011;30135;47.866;-4.222;2023-03-03T11:41:15;10.75;;;3.28;;
44430;SDS011;30135;47.866;-4.222;2023-03-03T11:47:09;14.43;;;2.22;;
44430;SDS011;30135;47.866;-4.222;2023-03-03T11:57:49;8.23;;;1.80;;
44430;SDS011;30135;47.866;-4.222;2023-03-03T12:12:32;10.70;;;3.08;;
44430;SDS011;30135;47.866;-4.222;2023-03-03T12:24:06;17.38;;;2.33;;
44430;SDS011;30135;47.866;-4.222;2023-03-03T12:29:58;13.68;;;3.33;;
44430;SDS011;30135;47.866;-4.222;2023-03-03T12:45:13;15.90;;;1.92;;
44430;SDS011;30135;47.866;-4.222;2023-03-03T12:50:52;16.70;;;2.20;;
44430;SDS011;30135;47.866;-4.222;2023-03-03T12:56:03;11.15;;;2.35;;
44430;SDS011;30135;47.866;-4.222;2023-03-03T13:04:30;13.38;;;3.67;;
44430;SDS011;30135;47.866;-4.222;2023-03-03T13:07:22;3.30;;;1.98;;
44430;SDS011;30135;47.866;-4.222;2023-03-03T13:15:57;9.40;;;2.80;;
44430;SDS011;30135;47.866;-4.222;2023-03-03T13:25:06;8.43;;;1.95;;
44430;SDS011;30135;47.866;-4.222;2023-03-03T13:27:21;8.93;;;2.35;;
44430;SDS011;30135;47.866;-4.222;2023-03-03T13:35:46;13.23;;;2.40;;
44430;SDS011;30135;47.866;-4.222;2023-03-03T13:38:21;13.57;;;2.50;;
44430;SDS011;30135;47.866;-4.222;2023-03-03T13:41:04;9.63;;;1.98;;
44430;SDS011;30135;47.866;-4.222;2023-03-03T13:46:33;13.20;;;2.95;;
44430;SDS011;30135;47.866;-4.222;2023-03-03T13:52:19;11.10;;;2.08;;
44430;SDS011;30135;47.866;-4.222;2023-03-03T13:55:03;8.18;;;1.65;;
44430;SDS011;30135;47.866;-4.222;2023-03-03T14:06:19;5.50;;;2.03;;
44430;SDS011;30135;47.866;-4.222;2023-03-03T14:09:09;10.45;;;2.17;;
44430;SDS011;30135;47.866;-4.222;2023-03-03T14:15:25;14.18;;;2.72;;
44430;SDS011;30135;47.866;-4.222;2023-03-03T14:21:06;4.20;;;1.77;;
44430;SDS011;30135;47.866;-4.222;2023-03-03T14:26:21;8.52;;;1.92;;
44430;SDS011;30135;47.866;-4.222;2023-03-03T14:28:48;7.65;;;1.83;;
44430;SDS011;30135;47.866;-4.222;2023-03-03T14:31:30;2.85;;;1.17;;
44430;SDS011;30135;47.866;-4.222;2023-03-03T14:36:59;10.85;;;3.13;;
44430;SDS011;30135;47.866;-4.222;2023-03-03T14:39:50;13.30;;;3.75;;
44430;SDS011;30135;47.866;-4.222;2023-03-03T14:45:20;10.45;;;1.92;;
44430;SDS011;30135;47.866;-4.222;2023-03-03T14:48:15;10.90;;;3.70;;
44430;SDS011;30135;47.866;-4.222;2023-03-03T14:50:53;4.72;;;2.33;;
44430;SDS011;30135;47.866;-4.222;2023-03-03T14:53:41;10.88;;;1.70;;
44430;SDS011;30135;47.866;-4.222;2023-03-03T14:56:14;6.82;;;1.67;;
44430;SDS011;30135;47.866;-4.222;2023-03-03T14:58:52;7.13;;;2.08;;
44430;SDS011;30135;47.866;-4.222;2023-03-03T15:01:40;12.45;;;1.75;;
44430;SDS011;30135;47.866;-4.222;2023-03-03T15:06:45;7.00;;;2.13;;
44430;SDS011;30135;47.866;-4.222;2023-03-03T15:17:35;5.18;;;1.60;;
44430;SDS011;30135;47.866;-4.222;2023-03-03T15:26:23;11.52;;;2.10;;
44430;SDS011;30135;47.866;-4.222;2023-03-03T15:29:45;8.20;;;2.00;;
44430;SDS011;30135;47.866;-4.222;2023-03-03T15:32:28;3.45;;;1.15;;
44430;SDS011;30135;47.866;-4.222;2023-03-03T15:37:51;3.50;;;1.58;;
44430;SDS011;30135;47.866;-4.222;2023-03-03T15:40:32;4.78;;;1.95;;
44430;SDS011;30135;47.866;-4.222;2023-03-03T15:43:21;7.10;;;1.88;;
44430;SDS011;30135;47.866;-4.222;2023-03-03T15:48:44;3.58;;;1.45;;
44430;SDS011;30135;47.866;-4.222;2023-03-03T16:00:52;3.30;;;1.40;;
44430;SDS011;30135;47.866;-4.222;2023-03-03T16:04:09;8.15;;;1.65;;
44430;SDS011;30135;47.866;-4.222;2023-03-03T16:09:57;7.18;;;1.75;;
44430;SDS011;30135;47.866;-4.222;2023-03-03T16:12:48;7.38;;;1.90;;
44430;SDS011;30135;47.866;-4.222;2023-03-03T16:21:32;10.77;;;1.27;;
44430;SDS011;30135;47.866;-4.222;2023-03-03T16:38:46;7.97;;;1.27;;
44430;SDS011;30135;47.866;-4.222;2023-03-03T16:41:31;3.83;;;1.33;;
44430;SDS011;30135;47.866;-4.222;2023-03-03T16:50:24;7.63;;;1.02;;
44430;SDS011;30135;47.866;-4.222;2023-03-03T16:53:08;15.75;;;1.85;;
44430;SDS011;30135;47.866;-4.222;2023-03-03T16:55:59;4.13;;;1.65;;
44430;SDS011;30135;47.866;-4.222;2023-03-03T17:19:39;6.03;;;2.17;;
44430;SDS011;30135;47.866;-4.222;2023-03-03T17:22:52;11.00;;;1.40;;
44430;SDS011;30135;47.866;-4.222;2023-03-03T17:32:00;10.80;;;2.35;;
44430;SDS011;30135;47.866;-4.222;2023-03-03T17:38:00;6.45;;;1.60;;
44430;SDS011;30135;47.866;-4.222;2023-03-03T17:41:00;7.63;;;1.85;;
44430;SDS011;30135;47.866;-4.222;2023-03-03T17:44:01;6.40;;;2.40;;
44430;SDS011;30135;47.866;-4.222;2023-03-03T17:58:52;7.13;;;1.88;;
44430;SDS011;30135;47.866;-4.222;2023-03-03T18:07:20;16.42;;;2.08;;
44430;SDS011;30135;47.866;-4.222;2023-03-03T18:10:51;6.03;;;2.53;;
44430;SDS011;30135;47.866;-4.222;2023-03-03T18:22:47;12.70;;;2.13;;
44430;SDS011;30135;47.866;-4.222;2023-03-03T18:25:17;7.65;;;2.08;;
44430;SDS011;30135;47.866;-4.222;2023-03-03T18:30:26;5.60;;;2.15;;
44430;SDS011;30135;47.866;-4.222;2023-03-03T18:35:34;12.90;;;2.85;;
44430;SDS011;30135;47.866;-4.222;2023-03-03T18:38:37;11.10;;;2.17;;
44430;SDS011;30135;47.866;-4.222;2023-03-03T18:41:00;10.23;;;1.98;;
44430;SDS011;30135;47.866;-4.222;2023-03-03T18:46:09;10.13;;;2.15;;
44430;SDS011;30135;47.866;-4.222;2023-03-03T19:02:38;13.10;;;3.47;;
44430;SDS011;30135;47.866;-4.222;2023-03-03T19:08:01;15.70;;;2.95;;
44430;SDS011;30135;47.866;-4.222;2023-03-03T19:11:00;14.38;;;3.25;;
44430;SDS011;30135;47.866;-4.222;2023-03-03T19:15:57;17.08;;;3.55;;
44430;SDS011;30135;47.866;-4.222;2023-03-03T19:18:26;12.00;;;4.35;;
44430;SDS011;30135;47.866;-4.222;2023-03-03T19:20:56;15.95;;;4.22;;
44430;SDS011;30135;47.866;-4.222;2023-03-03T19:31:52;9.30;;;2.85;;
44430;SDS011;30135;47.866;-4.222;2023-03-03T19:46:55;12.80;;;2.92;;
44430;SDS011;30135;47.866;-4.222;2023-03-03T19:49:14;16.05;;;2.97;;
44430;SDS011;30135;47.866;-4.222;2023-03-03T19:52:11;8.38;;;2.42;;
44430;SDS011;30135;47.866;-4.222;2023-03-03T19:57:58;15.63;;;3.50;;
44430;SDS011;30135;47.866;-4.222;2023-03-03T20:00:48;8.25;;;3.08;;
44430;SDS011;30135;47.866;-4.222;2023-03-03T20:03:42;8.82;;;2.72;;
44430;SDS011;30135;47.866;-4.222;2023-03-03T20:06:54;37.95;;;3.45;;
44430;SDS011;30135;47.866;-4.222;2023-03-03T20:17:49;7.65;;;2.28;;
44430;SDS011;30135;47.866;-4.222;2023-03-03T20:20:27;8.90;;;2.40;;
44430;SDS011;30135;47.866;-4.222;2023-03-03T20:26:30;9.60;;;3.80;;
44430;SDS011;30135;47.866;-4.222;2023-03-03T20:37:57;14.40;;;3.17;;
44430;SDS011;30135;47.866;-4.222;2023-03-03T20:41:00;19.00;;;3.42;;
44430;SDS011;30135;47.866;-4.222;2023-03-03T20:47:03;15.85;;;4.75;;
44430;SDS011;30135;47.866;-4.222;2023-03-03T20:55:18;14.98;;;3.90;;
44430;SDS011;30135;47.866;-4.222;2023-03-03T21:06:44;14.10;;;3.00;;
44430;SDS011;30135;47.866;-4.222;2023-03-03T21:12:10;8.63;;;2.05;;
44430;SDS011;30135;47.866;-4.222;2023-03-03T21:14:59;10.57;;;2.53;;
44430;SDS011;30135;47.866;-4.222;2023-03-03T21:17:30;6.10;;;2.67;;
44430;SDS011;30135;47.866;-4.222;2023-03-03T21:20:39;14.25;;;2.72;;
44430;SDS011;30135;47.866;-4.222;2023-03-03T21:23:02;5.53;;;2.13;;
44430;SDS011;30135;47.866;-4.222;2023-03-03T21:25:45;15.38;;;3.08;;
44430;SDS011;30135;47.866;-4.222;2023-03-03T21:28:23;8.85;;;2.30;;
44430;SDS011;30135;47.866;-4.222;2023-03-03T21:36:50;7.55;;;2.67;;
44430;SDS011;30135;47.866;-4.222;2023-03-03T21:41:50;10.13;;;3.88;;
44430;SDS011;30135;47.866;-4.222;2023-03-03T21:44:39;14.43;;;2.53;;
44430;SDS011;30135;47.866;-4.222;2023-03-03T21:47:13;18.98;;;3.70;;
44430;SDS011;30135;47.866;-4.222;2023-03-03T21:49:45;8.70;;;2.35;;
44430;SDS011;30135;47.866;-4.222;2023-03-03T21:52:14;8.82;;;3.05;;
44430;SDS011;30135;47.866;-4.222;2023-03-03T21:54:43;11.88;;;3.22;;
44430;SDS011;30135;47.866;-4.222;2023-03-03T21:57:10;9.25;;;2.90;;
44430;SDS011;30135;47.866;-4.222;2023-03-03T21:59:37;14.40;;;3.33;;
44430;SDS011;30135;47.866;-4.222;2023-03-03T22:02:04;9.13;;;3.97;;
44430;SDS011;30135;47.866;-4.222;2023-03-03T22:04:31;9.88;;;3.10;;
44430;SDS011;30135;47.866;-4.222;2023-03-03T22:06:57;16.70;;;4.00;;
44430;SDS011;30135;47.866;-4.222;2023-03-03T22:09:23;9.93;;;4.60;;
44430;SDS011;30135;47.866;-4.222;2023-03-03T22:11:49;22.60;;;4.63;;
44430;SDS011;30135;47.866;-4.222;2023-03-03T22:14:15;8.23;;;3.38;;
44430;SDS011;30135;47.866;-4.222;2023-03-03T22:16:42;10.93;;;3.60;;
44430;SDS011;30135;47.866;-4.222;2023-03-03T22:19:08;11.30;;;3.80;;
44430;SDS011;30135;47.866;-4.222;2023-03-03T22:21:34;14.07;;;3.70;;
44430;SDS011;30135;47.866;-4.222;2023-03-03T22:24:02;13.48;;;4.20;;
44430;SDS011;30135;47.866;-4.222;2023-03-03T22:26:31;9.38;;;3.15;;
44430;SDS011;30135;47.866;-4.222;2023-03-03T22:28:57;14.90;;;3.08;;
44430;SDS011;30135;47.866;-4.222;2023-03-03T22:31:24;8.40;;;3.17;;